sensor_id;sensor_type;location;lat;lon;timestamp;pressure;altitude;pressure_sealevel;temperature;humidity
42003;BME280;27693;50.506;30.832;2023-04-08T09:45:41;100245.28;;;16.41;66.18
42003;BME280;27693;50.506;30.832;2023-04-08T09:48:18;100243.91;;;16.36;65.30
42003;BME280;27693;50.506;30.832;2023-04-08T09:50:05;100239.47;;;16.51;64.35
42003;BME280;27693;50.506;30.832;2023-04-08T09:55:18;100244.81;;;16.64;65.79
42003;BME280;27693;50.506;30.832;2023-04-08T09:56:25;100252.05;;;16.45;64.25
42003;BME280;27693;50.506;30.832;2023-04-08T09:58:47;100248.94;;;16.53;65.94
42003;BME280;27693;50.506;30.832;2023-04-08T09:59:51;100261.90;;;16.56;64.99
42003;BME280;27693;50.506;30.832;2023-04-08T10:00:55;100262.73;;;16.57;64.52
42003;BME280;27693;50.506;30.832;2023-04-08T10:02:00;100249.75;;;16.68;64.33
42003;BME280;27693;50.506;30.832;2023-04-08T10:03:48;100250.69;;;16.82;62.29
42003;BME280;27693;50.506;30.832;2023-04-08T10:04:55;100255.22;;;16.65;63.82
42003;BME280;27693;50.506;30.832;2023-04-08T10:06:02;100250.06;;;16.64;62.64
42003;BME280;27693;50.506;30.832;2023-04-08T10:07:07;100264.31;;;16.59;62.20
42003;BME280;27693;50.506;30.832;2023-04-08T10:08:10;100254.36;;;16.65;62.95
42003;BME280;27693;50.506;30.832;2023-04-08T10:09:13;100252.88;;;16.60;62.52
42003;BME280;27693;50.506;30.832;2023-04-08T10:10:16;100256.54;;;16.58;64.95
42003;BME280;27693;50.506;30.832;2023-04-08T10:11:19;100253.91;;;16.58;62.41
42003;BME280;27693;50.506;30.832;2023-04-08T10:12:22;100254.55;;;16.76;63.59
42003;BME280;27693;50.506;30.832;2023-04-08T10:13:26;100250.95;;;16.91;63.92
42003;BME280;27693;50.506;30.832;2023-04-08T10:14:30;100251.88;;;16.90;61.67
42003;BME280;27693;50.506;30.832;2023-04-08T10:15:34;100251.95;;;17.03;61.79
42003;BME280;27693;50.506;30.832;2023-04-08T10:16:38;100250.48;;;16.99;59.45
42003;BME280;27693;50.506;30.832;2023-04-08T10:17:40;100261.53;;;16.90;58.75
42003;BME280;27693;50.506;30.832;2023-04-08T10:18:43;100253.86;;;17.01;59.37
42003;BME280;27693;50.506;30.832;2023-04-08T10:19:46;100247.59;;;17.17;59.75
42003;BME280;27693;50.506;30.832;2023-04-08T10:20:48;100249.92;;;17.21;58.32
42003;BME280;27693;50.506;30.832;2023-04-08T10:21:51;100255.02;;;17.37;57.77
42003;BME280;27693;50.506;30.832;2023-04-08T10:22:55;100255.89;;;17.51;57.60
42003;BME280;27693;50.506;30.832;2023-04-08T10:23:59;100252.66;;;17.60;58.18
42003;BME280;27693;50.506;30.832;2023-04-08T10:26:46;100249.11;;;17.87;54.92
42003;BME280;27693;50.506;30.832;2023-04-08T10:27:49;100246.14;;;17.79;58.44
42003;BME280;27693;50.506;30.832;2023-04-08T10:28:52;100251.73;;;17.87;56.67
42003;BME280;27693;50.506;30.832;2023-04-08T10:29:54;100251.73;;;17.87;54.76
42003;BME280;27693;50.506;30.832;2023-04-08T10:30:57;100259.05;;;17.96;53.42
42003;BME280;27693;50.506;30.832;2023-04-08T10:32:01;100259.05;;;17.96;53.42
42003;BME280;27693;50.506;30.832;2023-04-08T10:33:30;100249.41;;;17.82;53.62
42003;BME280;27693;50.506;30.832;2023-04-08T10:34:29;100250.68;;;17.89;55.16
42003;BME280;27693;50.506;30.832;2023-04-08T10:35:34;100249.22;;;17.85;54.08
42003;BME280;27693;50.506;30.832;2023-04-08T10:36:46;100254.82;;;18.07;54.11
42003;BME280;27693;50.506;30.832;2023-04-08T10:37:53;100248.68;;;17.93;53.23
42003;BME280;27693;50.506;30.832;2023-04-08T10:38:58;100256.82;;;18.03;53.42
42003;BME280;27693;50.506;30.832;2023-04-08T10:40:04;100257.03;;;18.13;53.46
42003;BME280;27693;50.506;30.832;2023-04-08T10:41:10;100256.41;;;18.22;54.70
42003;BME280;27693;50.506;30.832;2023-04-08T10:42:15;100257.86;;;18.26;54.17
42003;BME280;27693;50.506;30.832;2023-04-08T10:43:17;100256.83;;;18.16;51.60
42003;BME280;27693;50.506;30.832;2023-04-08T10:44:22;100244.84;;;18.12;53.44
42003;BME280;27693;50.506;30.832;2023-04-08T10:45:26;100247.03;;;18.05;54.23
42003;BME280;27693;50.506;30.832;2023-04-08T10:46:36;100249.55;;;18.07;51.96
42003;BME280;27693;50.506;30.832;2023-04-08T10:47:37;100251.98;;;17.97;51.42
42003;BME280;27693;50.506;30.832;2023-04-08T10:48:41;100249.04;;;18.01;52.39
42003;BME280;27693;50.506;30.832;2023-04-08T10:49:43;100249.27;;;17.98;53.49
42003;BME280;27693;50.506;30.832;2023-04-08T10:51:00;100252.48;;;17.89;53.68
42003;BME280;27693;50.506;30.832;2023-04-08T10:52:07;100246.83;;;17.95;52.74
42003;BME280;27693;50.506;30.832;2023-04-08T10:53:11;100252.26;;;17.92;51.91
42003;BME280;27693;50.506;30.832;2023-04-08T10:54:16;100245.66;;;17.99;51.53
42003;BME280;27693;50.506;30.832;2023-04-08T10:55:23;100247.16;;;18.03;52.73
42003;BME280;27693;50.506;30.832;2023-04-08T10:56:26;100245.88;;;18.22;55.37
42003;BME280;27693;50.506;30.832;2023-04-08T10:57:30;100242.80;;;18.28;52.27
42003;BME280;27693;50.506;30.832;2023-04-08T10:58:34;100242.92;;;18.40;55.68
42003;BME280;27693;50.506;30.832;2023-04-08T10:59:38;100242.17;;;18.38;52.10
42003;BME280;27693;50.506;30.832;2023-04-08T11:00:41;100244.68;;;18.52;51.59
42003;BME280;27693;50.506;30.832;2023-04-08T11:01:45;100237.16;;;18.59;51.71
42003;BME280;27693;50.506;30.832;2023-04-08T11:02:47;100235.66;;;18.67;51.27
42003;BME280;27693;50.506;30.832;2023-04-08T11:03:51;100235.51;;;18.82;52.45
42003;BME280;27693;50.506;30.832;2023-04-08T11:04:54;100229.90;;;18.99;51.40
42003;BME280;27693;50.506;30.832;2023-04-08T11:05:57;100226.17;;;19.26;51.91
42003;BME280;27693;50.506;30.832;2023-04-08T11:07:04;100237.03;;;19.46;51.95
42003;BME280;27693;50.506;30.832;2023-04-08T11:08:08;100226.97;;;19.51;49.58
42003;BME280;27693;50.506;30.832;2023-04-08T11:09:11;100226.17;;;19.26;48.92
42003;BME280;27693;50.506;30.832;2023-04-08T11:10:14;100222.52;;;19.16;48.55
42003;BME280;27693;50.506;30.832;2023-04-08T11:11:18;100232.87;;;18.95;49.77
42003;BME280;27693;50.506;30.832;2023-04-08T11:12:22;100227.97;;;19.02;50.88
42003;BME280;27693;50.506;30.832;2023-04-08T11:13:24;100229.20;;;19.09;49.50
42003;BME280;27693;50.506;30.832;2023-04-08T11:14:28;100221.70;;;19.15;50.04
42003;BME280;27693;50.506;30.832;2023-04-08T11:15:34;100225.32;;;19.26;51.82
42003;BME280;27693;50.506;30.832;2023-04-08T11:16:39;100225.90;;;19.18;47.46
42003;BME280;27693;50.506;30.832;2023-04-08T11:17:42;100227.34;;;19.22;48.22
42003;BME280;27693;50.506;30.832;2023-04-08T11:18:46;100223.93;;;19.09;46.51
42003;BME280;27693;50.506;30.832;2023-04-08T11:19:50;100225.25;;;18.90;47.26
42003;BME280;27693;50.506;30.832;2023-04-08T11:20:54;100218.49;;;18.99;50.64
42003;BME280;27693;50.506;30.832;2023-04-08T11:21:59;100222.70;;;19.02;47.35
42003;BME280;27693;50.506;30.832;2023-04-08T11:23:02;100228.42;;;18.95;47.32
42003;BME280;27693;50.506;30.832;2023-04-08T11:24:11;100225.08;;;18.93;47.57
42003;BME280;27693;50.506;30.832;2023-04-08T11:25:14;100217.70;;;19.10;48.61
42003;BME280;27693;50.506;30.832;2023-04-08T11:26:18;100220.44;;;19.33;48.16
42003;BME280;27693;50.506;30.832;2023-04-08T11:27:22;100208.14;;;19.44;45.23
42003;BME280;27693;50.506;30.832;2023-04-08T11:28:27;100220.05;;;19.61;47.12
42003;BME280;27693;50.506;30.832;2023-04-08T11:29:29;100217.42;;;19.73;47.74
42003;BME280;27693;50.506;30.832;2023-04-08T11:30:32;100212.63;;;19.78;46.82
42003;BME280;27693;50.506;30.832;2023-04-08T11:31:35;100214.13;;;19.93;47.24
42003;BME280;27693;50.506;30.832;2023-04-08T11:32:38;100215.33;;;20.01;43.25
42003;BME280;27693;50.506;30.832;2023-04-08T11:33:47;100213.28;;;20.16;46.38
42003;BME280;27693;50.506;30.832;2023-04-08T11:34:52;100219.89;;;20.21;42.98
42003;BME280;27693;50.506;30.832;2023-04-08T11:35:54;100210.89;;;20.24;44.47
42003;BME280;27693;50.506;30.832;2023-04-08T11:36:58;100206.57;;;20.34;45.32
42003;BME280;27693;50.506;30.832;2023-04-08T11:38:03;100208.71;;;20.29;42.77
42003;BME280;27693;50.506;30.832;2023-04-08T11:39:08;100203.09;;;20.22;42.39
42003;BME280;27693;50.506;30.832;2023-04-08T11:40:18;100203.58;;;20.16;43.95
42003;BME280;27693;50.506;30.832;2023-04-08T11:41:17;100208.48;;;20.09;44.31
42003;BME280;27693;50.506;30.832;2023-04-08T11:42:30;100204.06;;;20.10;43.46
42003;BME280;27693;50.506;30.832;2023-04-08T11:43:33;100202.86;;;20.03;43.24
42003;BME280;27693;50.506;30.832;2023-04-08T11:44:38;100203.91;;;19.89;41.64
42003;BME280;27693;50.506;30.832;2023-04-08T11:45:42;100193.25;;;20.02;42.54
42003;BME280;27693;50.506;30.832;2023-04-08T11:46:52;100191.22;;;19.94;45.92
42003;BME280;27693;50.506;30.832;2023-04-08T11:48:14;100191.92;;;20.19;44.56
42003;BME280;27693;50.506;30.832;2023-04-08T11:49:17;100193.25;;;19.90;44.28
42003;BME280;27693;50.506;30.832;2023-04-08T11:50:26;100190.34;;;20.05;44.25
42003;BME280;27693;50.506;30.832;2023-04-08T11:51:27;100184.84;;;20.08;43.57
42003;BME280;27693;50.506;30.832;2023-04-08T11:53:49;100188.20;;;19.87;42.64
42003;BME280;27693;50.506;30.832;2023-04-08T11:54:54;100185.43;;;19.89;42.86
42003;BME280;27693;50.506;30.832;2023-04-08T11:55:57;100176.94;;;19.97;42.58
42003;BME280;27693;50.506;30.832;2023-04-08T11:57:04;100183.16;;;20.07;45.80
42003;BME280;27693;50.506;30.832;2023-04-08T11:58:07;100180.75;;;19.92;42.10
42003;BME280;27693;50.506;30.832;2023-04-08T11:59:11;100182.50;;;19.80;42.50
42003;BME280;27693;50.506;30.832;2023-04-08T12:00:15;100177.95;;;19.71;42.79
42003;BME280;27693;50.506;30.832;2023-04-08T12:01:20;100182.36;;;19.48;42.97
42003;BME280;27693;50.506;30.832;2023-04-08T12:02:26;100181.84;;;19.43;43.93
42003;BME280;27693;50.506;30.832;2023-04-08T12:03:29;100176.81;;;19.40;46.37
42003;BME280;27693;50.506;30.832;2023-04-08T12:04:32;100178.25;;;19.44;45.25
42003;BME280;27693;50.506;30.832;2023-04-08T12:05:35;100176.75;;;19.64;44.92
42003;BME280;27693;50.506;30.832;2023-04-08T12:06:38;100177.13;;;19.82;43.80
42003;BME280;27693;50.506;30.832;2023-04-08T12:07:41;100178.13;;;20.04;41.78
42003;BME280;27693;50.506;30.832;2023-04-08T12:08:43;100169.48;;;20.24;41.08
42003;BME280;27693;50.506;30.832;2023-04-08T12:09:47;100169.91;;;20.41;42.75
42003;BME280;27693;50.506;30.832;2023-04-08T12:10:50;100167.50;;;20.49;41.83
42003;BME280;27693;50.506;30.832;2023-04-08T12:11:53;100172.75;;;20.61;40.40
42003;BME280;27693;50.506;30.832;2023-04-08T12:12:57;100159.42;;;20.73;40.14
42003;BME280;27693;50.506;30.832;2023-04-08T12:14:00;100166.69;;;20.93;41.86
42003;BME280;27693;50.506;30.832;2023-04-08T12:15:03;100154.74;;;20.98;41.76
42003;BME280;27693;50.506;30.832;2023-04-08T12:16:08;100162.59;;;20.88;41.45
42003;BME280;27693;50.506;30.832;2023-04-08T12:17:11;100163.61;;;20.76;39.71
42003;BME280;27693;50.506;30.832;2023-04-08T12:18:13;100170.30;;;20.92;40.55
42003;BME280;27693;50.506;30.832;2023-04-08T12:19:15;100166.56;;;21.15;40.04
42003;BME280;27693;50.506;30.832;2023-04-08T12:20:18;100160.20;;;21.39;41.98
42003;BME280;27693;50.506;30.832;2023-04-08T12:21:21;100178.33;;;21.86;41.33
42003;BME280;27693;50.506;30.832;2023-04-08T12:22:24;100178.33;;;21.86;41.33
42003;BME280;27693;50.506;30.832;2023-04-08T12:23:26;100168.12;;;21.81;38.03
42003;BME280;27693;50.506;30.832;2023-04-08T12:24:28;100163.27;;;21.86;39.82
42003;BME280;27693;50.506;30.832;2023-04-08T12:25:31;100171.61;;;21.39;39.74
42003;BME280;27693;50.506;30.832;2023-04-08T12:26:33;100165.73;;;20.94;41.28
42003;BME280;27693;50.506;30.832;2023-04-08T12:27:36;100172.69;;;20.39;41.04
42003;BME280;27693;50.506;30.832;2023-04-08T12:28:39;100173.78;;;19.91;43.17
42003;BME280;27693;50.506;30.832;2023-04-08T12:29:42;100183.84;;;19.75;40.11
42003;BME280;27693;50.506;30.832;2023-04-08T12:30:45;100175.89;;;19.63;39.35
42003;BME280;27693;50.506;30.832;2023-04-08T12:31:47;100180.20;;;19.53;41.21
42003;BME280;27693;50.506;30.832;2023-04-08T12:32:50;100175.33;;;19.24;39.84
42003;BME280;27693;50.506;30.832;2023-04-08T12:33:56;100168.77;;;19.30;39.72
42003;BME280;27693;50.506;30.832;2023-04-08T12:34:58;100170.34;;;19.44;43.15
42003;BME280;27693;50.506;30.832;2023-04-08T12:36:01;100167.35;;;19.48;39.79
42003;BME280;27693;50.506;30.832;2023-04-08T12:37:04;100171.82;;;19.71;38.68
42003;BME280;27693;50.506;30.832;2023-04-08T12:38:07;100167.14;;;19.74;39.57
42003;BME280;27693;50.506;30.832;2023-04-08T12:39:09;100172.33;;;19.76;39.21
42003;BME280;27693;50.506;30.832;2023-04-08T12:40:13;100163.42;;;19.66;39.90
42003;BME280;27693;50.506;30.832;2023-04-08T12:41:17;100167.48;;;19.58;41.95
42003;BME280;27693;50.506;30.832;2023-04-08T12:42:19;100161.25;;;19.48;40.99
42003;BME280;27693;50.506;30.832;2023-04-08T12:43:22;100163.02;;;19.36;41.07
42003;BME280;27693;50.506;30.832;2023-04-08T12:44:26;100161.66;;;19.19;41.54
42003;BME280;27693;50.506;30.832;2023-04-08T12:45:28;100160.64;;;19.09;42.55
42003;BME280;27693;50.506;30.832;2023-04-08T12:46:31;100159.41;;;19.02;41.17
42003;BME280;27693;50.506;30.832;2023-04-08T12:47:34;100159.05;;;18.95;43.29
42003;BME280;27693;50.506;30.832;2023-04-08T12:48:36;100159.80;;;18.84;43.39
42003;BME280;27693;50.506;30.832;2023-04-08T12:49:39;100154.49;;;18.73;43.93
42003;BME280;27693;50.506;30.832;2023-04-08T12:50:44;100162.14;;;18.51;43.20
42003;BME280;27693;50.506;30.832;2023-04-08T12:51:47;100161.34;;;18.38;44.61
42003;BME280;27693;50.506;30.832;2023-04-08T12:52:50;100164.54;;;18.30;45.07
42003;BME280;27693;50.506;30.832;2023-04-08T12:53:53;100158.46;;;18.17;44.30
42003;BME280;27693;50.506;30.832;2023-04-08T12:54:56;100159.73;;;18.11;44.72
42003;BME280;27693;50.506;30.832;2023-04-08T12:55:58;100159.09;;;18.08;44.85
42003;BME280;27693;50.506;30.832;2023-04-08T12:57:00;100171.63;;;17.91;45.57
42003;BME280;27693;50.506;30.832;2023-04-08T12:58:03;100167.62;;;17.85;46.59
42003;BME280;27693;50.506;30.832;2023-04-08T12:59:07;100173.20;;;17.81;45.97
42003;BME280;27693;50.506;30.832;2023-04-08T13:00:12;100175.61;;;17.58;46.35
42003;BME280;27693;50.506;30.832;2023-04-08T13:01:15;100179.72;;;17.36;46.63
42003;BME280;27693;50.506;30.832;2023-04-08T13:02:18;100194.22;;;17.29;46.44
42003;BME280;27693;50.506;30.832;2023-04-08T13:03:21;100191.97;;;17.23;47.37
42003;BME280;27693;50.506;30.832;2023-04-08T13:04:24;100179.38;;;17.28;50.61
42003;BME280;27693;50.506;30.832;2023-04-08T13:05:26;100198.66;;;17.42;50.90
42003;BME280;27693;50.506;30.832;2023-04-08T13:06:30;100215.84;;;17.20;48.94
42003;BME280;27693;50.506;30.832;2023-04-08T13:07:34;100199.95;;;17.08;54.08
42003;BME280;27693;50.506;30.832;2023-04-08T13:08:36;100206.95;;;16.95;53.92
42003;BME280;27693;50.506;30.832;2023-04-08T13:09:39;100210.52;;;16.94;55.74
42003;BME280;27693;50.506;30.832;2023-04-08T13:10:41;100203.87;;;16.74;55.62
42003;BME280;27693;50.506;30.832;2023-04-08T13:11:44;100221.86;;;16.38;54.03
42003;BME280;27693;50.506;30.832;2023-04-08T13:12:46;100216.41;;;16.27;56.45
42003;BME280;27693;50.506;30.832;2023-04-08T13:13:49;100229.54;;;16.27;56.52
42003;BME280;27693;50.506;30.832;2023-04-08T13:14:52;100238.75;;;16.05;54.53
42003;BME280;27693;50.506;30.832;2023-04-08T13:15:57;100232.74;;;16.03;58.66
42003;BME280;27693;50.506;30.832;2023-04-08T13:16:59;100229.93;;;15.92;57.11
42003;BME280;27693;50.506;30.832;2023-04-08T13:18:02;100232.40;;;15.79;57.22
42003;BME280;27693;50.506;30.832;2023-04-08T13:19:06;100233.59;;;15.73;56.79
42003;BME280;27693;50.506;30.832;2023-04-08T13:20:09;100248.20;;;15.63;58.58
42003;BME280;27693;50.506;30.832;2023-04-08T13:21:13;100239.63;;;15.45;58.91
42003;BME280;27693;50.506;30.832;2023-04-08T13:22:16;100237.78;;;15.31;59.09
42003;BME280;27693;50.506;30.832;2023-04-08T13:23:20;100236.28;;;15.27;60.15
42003;BME280;27693;50.506;30.832;2023-04-08T13:24:23;100233.09;;;15.22;60.45
42003;BME280;27693;50.506;30.832;2023-04-08T13:25:25;100233.92;;;15.22;60.22
42003;BME280;27693;50.506;30.832;2023-04-08T13:26:28;100234.88;;;15.05;61.86
42003;BME280;27693;50.506;30.832;2023-04-08T13:27:31;100234.88;;;15.05;61.86
42003;BME280;27693;50.506;30.832;2023-04-08T13:28:34;100232.00;;;15.10;62.08
42003;BME280;27693;50.506;30.832;2023-04-08T13:29:39;100222.54;;;15.07;61.99
42003;BME280;27693;50.506;30.832;2023-04-08T13:30:42;100226.44;;;15.00;62.89
42003;BME280;27693;50.506;30.832;2023-04-08T13:31:46;100223.23;;;14.95;64.03
42003;BME280;27693;50.506;30.832;2023-04-08T13:32:49;100235.16;;;14.68;64.06
42003;BME280;27693;50.506;30.832;2023-04-08T13:33:52;100230.22;;;14.62;63.32
42003;BME280;27693;50.506;30.832;2023-04-08T13:34:57;100230.93;;;14.66;63.72
42003;BME280;27693;50.506;30.832;2023-04-08T13:36:00;100228.62;;;14.60;63.11
42003;BME280;27693;50.506;30.832;2023-04-08T13:37:02;100228.89;;;14.71;66.04
42003;BME280;27693;50.506;30.832;2023-04-08T13:38:05;100239.38;;;14.71;64.88
42003;BME280;27693;50.506;30.832;2023-04-08T13:39:08;100235.67;;;14.75;64.14
42003;BME280;27693;50.506;30.832;2023-04-08T13:40:12;100231.05;;;14.63;63.17
42003;BME280;27693;50.506;30.832;2023-04-08T13:41:15;100230.46;;;14.58;64.35
42003;BME280;27693;50.506;30.832;2023-04-08T13:42:18;100234.22;;;14.69;67.18
42003;BME280;27693;50.506;30.832;2023-04-08T13:43:22;100230.93;;;14.66;65.66
42003;BME280;27693;50.506;30.832;2023-04-08T13:44:25;100229.08;;;14.68;65.18
42003;BME280;27693;50.506;30.832;2023-04-08T13:45:28;100224.86;;;14.65;63.76
42003;BME280;27693;50.506;30.832;2023-04-08T13:46:31;100211.98;;;14.61;64.45
42003;BME280;27693;50.506;30.832;2023-04-08T13:47:34;100211.98;;;14.61;64.45
42003;BME280;27693;50.506;30.832;2023-04-08T13:48:40;100207.27;;;14.67;63.98
42003;BME280;27693;50.506;30.832;2023-04-08T13:49:44;100205.64;;;14.65;64.53
42003;BME280;27693;50.506;30.832;2023-04-08T13:50:46;100202.19;;;14.64;62.81
42003;BME280;27693;50.506;30.832;2023-04-08T13:51:50;100201.20;;;14.67;63.13
42003;BME280;27693;50.506;30.832;2023-04-08T13:52:52;100197.78;;;14.65;63.09
42003;BME280;27693;50.506;30.832;2023-04-08T13:53:56;100201.33;;;14.64;63.97
42003;BME280;27693;50.506;30.832;2023-04-08T13:55:00;100194.17;;;14.67;64.74
42003;BME280;27693;50.506;30.832;2023-04-08T13:56:03;100200.19;;;14.69;65.41
42003;BME280;27693;50.506;30.832;2023-04-08T13:57:07;100190.27;;;14.59;65.94
42003;BME280;27693;50.506;30.832;2023-04-08T13:58:10;100183.80;;;14.66;68.45
42003;BME280;27693;50.506;30.832;2023-04-08T13:59:14;100185.80;;;14.61;65.97
42003;BME280;27693;50.506;30.832;2023-04-08T14:00:16;100180.56;;;14.61;64.07
42003;BME280;27693;50.506;30.832;2023-04-08T14:01:21;100173.79;;;14.57;64.82
42003;BME280;27693;50.506;30.832;2023-04-08T14:02:23;100178.28;;;14.54;65.00
42003;BME280;27693;50.506;30.832;2023-04-08T14:03:27;100169.32;;;14.59;65.78
42003;BME280;27693;50.506;30.832;2023-04-08T14:04:31;100177.17;;;14.59;65.22
42003;BME280;27693;50.506;30.832;2023-04-08T14:05:35;100165.78;;;14.60;64.51
42003;BME280;27693;50.506;30.832;2023-04-08T14:06:38;100166.36;;;14.65;65.48
42003;BME280;27693;50.506;30.832;2023-04-08T14:07:41;100174.31;;;14.63;63.41
42003;BME280;27693;50.506;30.832;2023-04-08T14:08:43;100164.19;;;14.73;64.51
42003;BME280;27693;50.506;30.832;2023-04-08T14:09:45;100163.84;;;14.79;60.42
42003;BME280;27693;50.506;30.832;2023-04-08T14:10:48;100157.74;;;14.95;62.31
42003;BME280;27693;50.506;30.832;2023-04-08T14:11:50;100148.77;;;14.99;59.45
42003;BME280;27693;50.506;30.832;2023-04-08T14:12:53;100154.88;;;15.14;58.79
42003;BME280;27693;50.506;30.832;2023-04-08T14:13:55;100163.11;;;15.08;56.83
42003;BME280;27693;50.506;30.832;2023-04-08T14:14:58;100166.99;;;15.16;58.79
42003;BME280;27693;50.506;30.832;2023-04-08T14:16:01;100169.02;;;15.11;57.27
42003;BME280;27693;50.506;30.832;2023-04-08T14:17:05;100171.73;;;15.10;56.96
42003;BME280;27693;50.506;30.832;2023-04-08T14:18:08;100173.42;;;15.11;57.44
42003;BME280;27693;50.506;30.832;2023-04-08T14:19:13;100170.70;;;15.12;57.91
42003;BME280;27693;50.506;30.832;2023-04-08T14:20:16;100164.53;;;15.13;58.13
42003;BME280;27693;50.506;30.832;2023-04-08T14:21:19;100160.23;;;15.12;55.80
42003;BME280;27693;50.506;30.832;2023-04-08T14:22:22;100160.23;;;15.12;55.80
42003;BME280;27693;50.506;30.832;2023-04-08T14:23:25;100166.33;;;15.13;56.40
42003;BME280;27693;50.506;30.832;2023-04-08T14:24:28;100158.94;;;15.20;59.58
42003;BME280;27693;50.506;30.832;2023-04-08T14:25:32;100158.94;;;15.20;56.00
42003;BME280;27693;50.506;30.832;2023-04-08T14:26:34;100160.23;;;15.12;55.41
42003;BME280;27693;50.506;30.832;2023-04-08T14:27:38;100160.48;;;15.08;56.77
42003;BME280;27693;50.506;30.832;2023-04-08T14:28:43;100163.41;;;15.17;58.77
42003;BME280;27693;50.506;30.832;2023-04-08T14:29:47;100157.70;;;15.11;55.44
42003;BME280;27693;50.506;30.832;2023-04-08T14:30:50;100165.56;;;15.11;56.75
42003;BME280;27693;50.506;30.832;2023-04-08T14:31:53;100161.75;;;15.16;57.47
42003;BME280;27693;50.506;30.832;2023-04-08T14:32:55;100164.53;;;15.13;56.10
42003;BME280;27693;50.506;30.832;2023-04-08T14:33:59;100159.03;;;15.18;57.53
42003;BME280;27693;50.506;30.832;2023-04-08T14:35:01;100161.56;;;15.20;57.98
42003;BME280;27693;50.506;30.832;2023-04-08T14:36:04;100161.56;;;15.20;55.79
42003;BME280;27693;50.506;30.832;2023-04-08T14:37:07;100172.05;;;15.20;55.45
42003;BME280;27693;50.506;30.832;2023-04-08T14:38:12;100163.77;;;15.11;53.81
42003;BME280;27693;50.506;30.832;2023-04-08T14:39:14;100169.02;;;15.11;54.52
42003;BME280;27693;50.506;30.832;2023-04-08T14:40:17;100165.97;;;15.19;54.00
42003;BME280;27693;50.506;30.832;2023-04-08T14:41:20;100168.90;;;15.29;53.48
42003;BME280;27693;50.506;30.832;2023-04-08T14:42:23;100168.90;;;15.29;53.48
42003;BME280;27693;50.506;30.832;2023-04-08T14:43:26;100166.08;;;15.32;52.94
42003;BME280;27693;50.506;30.832;2023-04-08T14:44:29;100158.87;;;15.36;52.95
42003;BME280;27693;50.506;30.832;2023-04-08T14:45:31;100168.17;;;15.41;53.74
42003;BME280;27693;50.506;30.832;2023-04-08T14:46:34;100165.28;;;15.46;53.78
42003;BME280;27693;50.506;30.832;2023-04-08T14:47:38;100161.43;;;15.52;54.15
42003;BME280;27693;50.506;30.832;2023-04-08T14:48:41;100163.98;;;15.53;52.71
42003;BME280;27693;50.506;30.832;2023-04-08T14:49:43;100168.00;;;15.59;53.26
42003;BME280;27693;50.506;30.832;2023-04-08T14:50:47;100167.94;;;15.60;51.77
42003;BME280;27693;50.506;30.832;2023-04-08T14:51:49;100159.41;;;15.57;51.95
42003;BME280;27693;50.506;30.832;2023-04-08T14:52:53;100159.57;;;15.54;51.06
42003;BME280;27693;50.506;30.832;2023-04-08T14:53:56;100169.69;;;15.60;52.46
42003;BME280;27693;50.506;30.832;2023-04-08T14:54:58;100170.35;;;15.63;52.98
42003;BME280;27693;50.506;30.832;2023-04-08T14:56:01;100164.08;;;15.66;52.83
42003;BME280;27693;50.506;30.832;2023-04-08T14:57:03;100160.52;;;15.67;51.80
42003;BME280;27693;50.506;30.832;2023-04-08T14:58:10;100162.97;;;15.70;51.70
42003;BME280;27693;50.506;30.832;2023-04-08T14:59:12;100166.53;;;15.69;51.97
42003;BME280;27693;50.506;30.832;2023-04-08T15:00:16;100166.43;;;15.71;52.61
42003;BME280;27693;50.506;30.832;2023-04-08T15:01:20;100176.82;;;15.72;53.14
42003;BME280;27693;50.506;30.832;2023-04-08T15:02:24;100175.89;;;15.73;52.67
42003;BME280;27693;50.506;30.832;2023-04-08T15:03:27;100174.20;;;15.72;52.13
42003;BME280;27693;50.506;30.832;2023-04-08T15:04:30;100177.68;;;15.73;52.19
42003;BME280;27693;50.506;30.832;2023-04-08T15:05:33;100180.41;;;15.71;51.89
42003;BME280;27693;50.506;30.832;2023-04-08T15:06:38;100181.41;;;15.69;52.02
42003;BME280;27693;50.506;30.832;2023-04-08T15:07:42;100190.30;;;15.66;52.00
42003;BME280;27693;50.506;30.832;2023-04-08T15:08:44;100198.54;;;15.60;52.67
42003;BME280;27693;50.506;30.832;2023-04-08T15:09:48;100203.98;;;15.57;52.78
42003;BME280;27693;50.506;30.832;2023-04-08T15:10:50;100201.80;;;15.18;53.77
42003;BME280;27693;50.506;30.832;2023-04-08T15:11:52;100192.05;;;14.90;56.90
42003;BME280;27693;50.506;30.832;2023-04-08T15:12:55;100206.17;;;14.88;57.93
42003;BME280;27693;50.506;30.832;2023-04-08T15:13:57;100200.52;;;14.79;58.90
42003;BME280;27693;50.506;30.832;2023-04-08T15:14:59;100208.25;;;14.65;59.72
42003;BME280;27693;50.506;30.832;2023-04-08T15:16:03;100212.32;;;14.54;60.66
42003;BME280;27693;50.506;30.832;2023-04-08T15:17:07;100203.70;;;14.52;61.22
42003;BME280;27693;50.506;30.832;2023-04-08T15:18:11;100200.31;;;14.50;60.91
42003;BME280;27693;50.506;30.832;2023-04-08T15:19:14;100205.88;;;14.44;60.36
42003;BME280;27693;50.506;30.832;2023-04-08T15:20:16;100205.88;;;14.44;59.72
42003;BME280;27693;50.506;30.832;2023-04-08T15:21:22;100211.98;;;14.45;59.43
42003;BME280;27693;50.506;30.832;2023-04-08T15:22:25;100212.81;;;14.45;58.61
42003;BME280;27693;50.506;30.832;2023-04-08T15:23:27;100217.27;;;14.43;58.06
42003;BME280;27693;50.506;30.832;2023-04-08T15:24:31;100218.14;;;14.44;58.82
42003;BME280;27693;50.506;30.832;2023-04-08T15:25:34;100212.81;;;14.45;58.62